Time;durP1;ratioP1;P1;durP2;ratioP2;P2;SDS_P1;SDS_P2;PMS_P1;PMS_P2;Temp;Humidity;BMP_temperature;BMP_pressure;BME280_temperature;BME280_humidity;BME280_pressure;Samples;Min_cycle;Max_cycle;Signal;HPM_P1;HPM_P2
2023/08/22 00:00:56;;;;;;;4.13;2.10;;;;;;;18.89;100.00;101255.03;5067515;28;19916;-83
2023/08/22 00:03:22;;;;;;;4.72;2.10;;;;;;;18.93;100.00;101255.38;5038204;28;20079;-83
2023/08/22 00:05:48;;;;;;;3.60;2.00;;;;;;;18.99;100.00;101248.00;5055706;28;20507;-83
2023/08/22 00:08:14;;;;;;;6.03;2.50;;;;;;;19.03;100.00;101244.44;5070429;28;20037;-83
2023/08/22 00:10:41;;;;;;;4.80;2.10;;;;;;;19.04;100.00;101237.81;5059031;28;20316;-83
2023/08/22 00:13:07;;;;;;;4.72;2.03;;;;;;;19.03;100.00;101233.38;5070317;28;20120;-83
2023/08/22 00:15:33;;;;;;;5.55;2.10;;;;;;;19.02;100.00;101225.38;5065288;28;20037;-83
2023/08/22 00:17:59;;;;;;;3.97;2.28;;;;;;;18.99;100.00;101228.66;5051705;28;20052;-82
2023/08/22 00:20:25;;;;;;;5.22;2.20;;;;;;;18.93;100.00;101231.31;5067318;28;20094;-83
2023/08/22 00:22:51;;;;;;;6.63;2.20;;;;;;;18.86;100.00;101222.41;5062963;28;20029;-83
2023/08/22 00:25:18;;;;;;;3.78;2.00;;;;;;;18.76;100.00;101216.75;5064348;28;20055;-83
2023/08/22 00:27:44;;;;;;;5.45;2.65;;;;;;;18.68;100.00;101215.28;5048050;28;20053;-83
2023/08/22 00:30:10;;;;;;;5.15;2.10;;;;;;;18.65;100.00;101207.50;5054698;28;20200;-83
2023/08/22 00:32:36;;;;;;;5.32;2.17;;;;;;;18.54;100.00;101196.31;5022712;28;20115;-84
2023/08/22 00:35:02;;;;;;;5.53;2.05;;;;;;;18.47;100.00;101190.16;5049177;28;20032;-84
2023/08/22 00:37:28;;;;;;;5.00;1.95;;;;;;;18.39;100.00;101190.63;5065546;28;20047;-84
2023/08/22 00:39:55;;;;;;;6.15;2.00;;;;;;;18.34;100.00;101187.78;5067152;28;20037;-84
2023/08/22 00:42:22;;;;;;;5.45;2.30;;;;;;;18.31;100.00;101193.81;5048442;28;20051;-84
2023/08/22 00:44:48;;;;;;;5.75;2.40;;;;;;;18.26;100.00;101181.59;5052402;28;20055;-84
2023/08/22 00:47:16;;;;;;;6.03;2.35;;;;;;;18.28;100.00;101184.13;5051403;28;20467;-84
2023/08/22 00:49:42;;;;;;;5.78;2.40;;;;;;;18.34;100.00;101182.25;5068541;28;20024;-83
2023/08/22 00:52:09;;;;;;;4.60;2.13;;;;;;;18.46;100.00;101185.72;5036310;28;20036;-84
2023/08/22 00:54:36;;;;;;;4.70;2.55;;;;;;;18.50;100.00;101186.88;5069707;28;20113;-84
2023/08/22 00:57:03;;;;;;;4.70;2.30;;;;;;;18.52;100.00;101184.69;5069766;28;20032;-84
2023/08/22 00:59:31;;;;;;;4.63;2.03;;;;;;;18.51;100.00;101194.06;5068546;28;20036;-85
2023/08/22 01:01:57;;;;;;;5.43;2.17;;;;;;;18.57;100.00;101191.41;5064265;28;20025;-83
2023/08/22 01:04:23;;;;;;;5.55;2.20;;;;;;;18.66;100.00;101187.88;5036602;28;20124;-84
2023/08/22 01:07:17;;;;;;;5.43;1.92;;;;;;;18.68;100.00;101204.22;5051737;28;20036;-84
2023/08/22 01:10:04;;;;;;;9.57;2.55;;;;;;;18.70;100.00;101207.56;5058888;28;20028;-85
2023/08/22 01:12:42;;;;;;;7.10;2.80;;;;;;;18.73;100.00;101220.84;5069153;28;20029;-83
2023/08/22 01:15:20;;;;;;;5.60;2.42;;;;;;;18.78;100.00;101209.03;5067681;28;20036;-84
2023/08/22 01:17:48;;;;;;;4.50;2.30;;;;;;;18.79;100.00;101214.28;5059208;28;20115;-85
2023/08/22 01:20:15;;;;;;;3.95;2.17;;;;;;;18.82;100.00;101205.47;5058719;28;20430;-85
2023/08/22 01:22:42;;;;;;;4.25;2.10;;;;;;;18.82;100.00;101204.66;5050421;28;20045;-84
2023/08/22 01:25:09;;;;;;;4.90;2.20;;;;;;;18.79;100.00;101196.88;5037821;28;20036;-85
2023/08/22 01:27:59;;;;;;;5.60;2.33;;;;;;;18.75;100.00;101190.22;5040340;28;20519;-84
2023/08/22 01:30:33;;;;;;;6.18;2.47;;;;;;;18.74;100.00;101186.59;5039959;28;20380;-85
2023/08/22 01:33:06;;;;;;;5.75;2.53;;;;;;;18.78;100.00;101193.28;5053359;28;20040;-85
2023/08/22 01:35:34;;;;;;;7.40;2.28;;;;;;;18.80;100.00;101191.09;5052663;28;20040;-84
2023/08/22 01:38:01;;;;;;;4.82;2.20;;;;;;;18.80;100.00;101188.31;5045706;28;20113;-85
2023/08/22 01:40:29;;;;;;;5.45;2.30;;;;;;;18.80;100.00;101180.03;5048500;28;20133;-84
2023/08/22 01:42:56;;;;;;;4.63;2.38;;;;;;;18.78;100.00;101181.41;5061240;28;20044;-85
2023/08/22 01:45:22;;;;;;;4.63;2.00;;;;;;;18.73;100.00;101162.81;5065029;28;20102;-85
2023/08/22 01:47:49;;;;;;;4.10;1.95;;;;;;;18.67;100.00;101156.41;5052093;28;20033;-85
2023/08/22 01:50:16;;;;;;;5.50;2.33;;;;;;;18.67;100.00;101164.69;5052407;28;20452;-84
2023/08/22 01:52:42;;;;;;;5.47;2.35;;;;;;;18.67;100.00;101163.88;5044410;28;20164;-84
2023/08/22 01:55:08;;;;;;;4.47;2.10;;;;;;;18.76;100.00;101173.34;5040369;28;20044;-85
2023/08/22 01:57:34;;;;;;;5.25;2.33;;;;;;;18.81;100.00;101176.16;5066580;28;20427;-85
2023/08/22 02:00:00;;;;;;;4.90;2.28;;;;;;;18.86;100.00;101169.06;5049542;28;20056;-84
2023/08/22 02:02:27;;;;;;;5.25;2.40;;;;;;;18.88;100.00;101166.88;5052097;28;20041;-85
2023/08/22 02:04:53;;;;;;;5.18;2.22;;;;;;;18.88;100.00;101169.63;5079541;28;20048;-85
2023/08/22 02:07:19;;;;;;;5.05;2.25;;;;;;;18.92;100.00;101171.59;5079735;28;20086;-85
2023/08/22 02:09:45;;;;;;;4.45;2.15;;;;;;;18.91;100.00;101167.16;5039791;28;20028;-85
2023/08/22 02:12:11;;;;;;;6.63;2.08;;;;;;;18.84;100.00;101163.78;5052067;28;20079;-86
2023/08/22 02:14:37;;;;;;;5.88;2.65;;;;;;;18.90;100.00;101172.97;5055521;28;20045;-85
2023/08/22 02:17:03;;;;;;;6.72;2.50;;;;;;;18.88;100.00;101159.38;5056843;28;20041;-86
2023/08/22 02:19:29;;;;;;;4.55;2.20;;;;;;;18.86;100.00;101156.06;5052718;28;20101;-85
2023/08/22 02:21:55;;;;;;;6.65;2.03;;;;;;;18.79;100.00;101145.19;5058226;28;20037;-85
2023/08/22 02:24:22;;;;;;;6.18;2.10;;;;;;;18.81;100.00;101144.94;5038009;28;20044;-85
2023/08/22 02:26:48;;;;;;;3.25;1.90;;;;;;;18.78;100.00;101134.41;5052170;28;20493;-85
2023/08/22 02:29:14;;;;;;;4.82;2.25;;;;;;;18.75;100.00;101132.19;5043967;28;20043;-85
2023/08/22 02:31:40;;;;;;;4.70;2.35;;;;;;;18.72;100.00;101125.22;5065324;28;20029;-85
2023/08/22 02:34:06;;;;;;;4.72;2.35;;;;;;;18.67;100.00;101114.94;5052628;28;20047;-86
2023/08/22 02:36:32;;;;;;;5.28;2.10;;;;;;;18.67;100.00;101119.66;5046428;28;20036;-85
2023/08/22 02:38:59;;;;;;;5.82;2.30;;;;;;;18.67;100.00;101119.66;5049506;28;20052;-84
2023/08/22 02:41:25;;;;;;;5.40;2.42;;;;;;;18.68;100.00;101121.31;5065946;28;20068;-85
2023/08/22 02:43:51;;;;;;;5.53;2.88;;;;;;;18.74;100.00;101133.28;5062822;28;20111;-85
2023/08/22 02:46:17;;;;;;;7.07;2.58;;;;;;;18.77;100.00;101113.41;5034642;28;20395;-85
2023/08/22 02:48:43;;;;;;;7.60;2.40;;;;;;;18.78;100.00;101109.56;5044702;28;20055;-85
2023/08/22 02:51:09;;;;;;;6.53;2.50;;;;;;;18.77;100.00;101099.59;5050534;28;20042;-85
2023/08/22 02:53:35;;;;;;;5.13;2.20;;;;;;;18.71;100.00;101098.69;5050075;28;20396;-85
2023/08/22 02:56:03;;;;;;;7.65;2.47;;;;;;;18.69;100.00;101093.41;5047340;28;20082;-86
2023/08/22 02:58:30;;;;;;;7.78;3.20;;;;;;;18.65;100.00;101088.69;5060462;28;20041;-84
2023/08/22 03:00:56;;;;;;;4.72;2.50;;;;;;;18.64;100.00;101092.56;5048844;28;20037;-84
2023/08/22 03:03:23;;;;;;;5.13;2.17;;;;;;;18.65;100.00;101102.50;5040063;28;20467;-85
2023/08/22 03:05:49;;;;;;;4.67;2.30;;;;;;;18.68;100.00;101099.22;5045226;28;20071;-85
2023/08/22 03:08:16;;;;;;;6.32;2.50;;;;;;;18.67;100.00;101092.84;5045413;28;20033;-85
2023/08/22 03:10:43;;;;;;;6.80;2.88;;;;;;;18.72;100.00;101088.50;5073760;28;20024;-85
2023/08/22 03:13:10;;;;;;;6.32;2.53;;;;;;;18.79;100.00;101091.88;5059436;28;20024;-85
2023/08/22 03:15:36;;;;;;;9.50;2.65;;;;;;;18.86;100.00;101080.59;5072406;28;20043;-84
2023/08/22 03:18:02;;;;;;;6.15;2.22;;;;;;;18.89;100.00;101086.44;5089635;28;20064;-86
2023/08/22 03:20:28;;;;;;;5.78;2.40;;;;;;;18.90;100.00;101081.75;5067132;28;20045;-85
2023/08/22 03:22:56;;;;;;;;;;;;;;;18.86;100.00;101072.31;5042162;28;20025;-85
2023/08/22 03:25:22;;;;;;;6.03;2.78;;;;;;;18.78;100.00;101073.63;5050002;28;19916;-85
2023/08/22 03:27:48;;;;;;;6.13;2.30;;;;;;;18.75;100.00;101074.16;5051044;28;20071;-85
2023/08/22 03:30:15;;;;;;;6.53;2.55;;;;;;;18.73;100.00;101060.56;5043957;28;20025;-86
2023/08/22 03:32:42;;;;;;;6.45;2.72;;;;;;;18.74;100.00;101062.25;5048369;28;20029;-85
2023/08/22 03:35:09;;;;;;;5.45;2.60;;;;;;;18.74;100.00;101065.00;5040230;28;20037;-84
2023/08/22 03:37:40;;;;;;;6.30;2.88;;;;;;;18.80;100.00;101075.00;5044014;28;20029;-85
2023/08/22 03:40:07;;;;;;;7.15;2.50;;;;;;;18.77;100.00;101075.53;5050406;28;20025;-84
2023/08/22 03:42:33;;;;;;;6.40;2.63;;;;;;;18.83;100.00;101084.72;5068627;28;20032;-85
2023/08/22 03:45:06;;;;;;;5.32;2.55;;;;;;;18.89;100.00;101091.97;5038395;28;20033;-84
2023/08/22 03:47:32;;;;;;;6.53;2.83;;;;;;;18.67;100.00;101048.63;5053084;28;20049;-84
2023/08/22 03:49:59;;;;;;;6.53;2.72;;;;;;;18.96;100.00;101084.31;5055018;28;20121;-84
2023/08/22 03:52:28;;;;;;;4.70;2.72;;;;;;;19.03;100.00;101088.81;5045373;28;20032;-85
2023/08/22 03:54:55;;;;;;;6.13;2.60;;;;;;;19.10;100.00;101093.03;5052322;28;20059;-84
2023/08/22 03:57:21;;;;;;;8.07;2.92;;;;;;;19.17;100.00;101100.25;5053029;28;20094;-84
2023/08/22 03:59:48;;;;;;;3.90;2.42;;;;;;;19.19;100.00;101100.81;5047255;28;20058;-85
2023/08/22 04:02:15;;;;;;;4.90;2.53;;;;;;;19.18;100.00;101085.34;5040378;28;20639;-84
2023/08/22 04:04:41;;;;;;;7.95;2.60;;;;;;;19.16;100.00;101082.00;5052107;28;20036;-85
2023/08/22 04:07:07;;;;;;;4.82;2.42;;;;;;;19.10;100.00;101073.66;5061723;28;20033;-85
2023/08/22 04:09:34;;;;;;;6.35;2.53;;;;;;;19.02;100.00;101071.38;5053723;28;20032;-84
2023/08/22 04:12:01;;;;;;;5.80;2.83;;;;;;;19.01;100.00;101072.47;5054507;28;20029;-84
2023/08/22 04:14:27;;;;;;;5.05;2.47;;;;;;;18.95;100.00;101057.72;5061796;28;20076;-85
2023/08/22 04:16:54;;;;;;;4.60;2.45;;;;;;;18.89;100.00;101049.69;5057202;28;20039;-85
2023/08/22 04:19:20;;;;;;;6.68;2.58;;;;;;;18.82;100.00;101061.75;5057097;28;20048;-84
2023/08/22 04:21:47;;;;;;;5.13;2.70;;;;;;;18.78;100.00;101070.84;5069283;28;20041;-86
2023/08/22 04:24:14;;;;;;;9.18;2.95;;;;;;;18.74;100.00;101081.59;5071566;28;20016;-85
2023/08/22 04:26:40;;;;;;;6.40;3.20;;;;;;;18.76;100.00;101079.41;5075813;28;20097;-85
2023/08/22 04:29:06;;;;;;;8.25;2.95;;;;;;;18.78;100.00;101079.97;5073546;28;20041;-85
2023/08/22 04:31:34;;;;;;;5.25;2.33;;;;;;;18.83;100.00;101081.94;5060713;28;20382;-84
2023/08/22 04:34:02;;;;;;;7.10;2.35;;;;;;;18.87;100.00;101066.50;5073369;28;20064;-86
2023/08/22 04:36:30;;;;;;;6.38;2.33;;;;;;;18.93;100.00;101067.41;5040538;28;20057;-82
2023/08/22 04:38:57;;;;;;;6.13;2.73;;;;;;;18.98;100.00;101059.19;5074590;28;20060;-84
2023/08/22 04:41:23;;;;;;;5.15;2.50;;;;;;;19.04;100.00;101055.34;5054456;28;20719;-85
2023/08/22 04:44:07;;;;;;;5.65;2.35;;;;;;;19.07;100.00;101048.47;5052595;28;20040;-84
2023/08/22 04:46:35;;;;;;;4.20;2.40;;;;;;;19.07;100.00;101051.22;5061114;28;20044;-84
2023/08/22 04:49:01;;;;;;;3.70;2.38;;;;;;;19.06;100.00;101055.91;5057095;28;20108;-84
2023/08/22 04:51:29;;;;;;;5.25;2.47;;;;;;;19.09;100.00;101060.91;5053179;28;20033;-82
2023/08/22 04:53:55;;;;;;;6.38;2.67;;;;;;;19.11;100.00;101058.75;5061624;28;20033;-84
2023/08/22 04:56:22;;;;;;;5.93;2.55;;;;;;;19.14;100.00;101062.06;5055267;28;20040;-86
2023/08/22 04:58:48;;;;;;;7.07;2.47;;;;;;;19.17;100.00;101044.94;5052143;28;20105;-84
2023/08/22 05:01:14;;;;;;;5.20;2.70;;;;;;;19.12;100.00;101023.63;5058599;28;20033;-84
2023/08/22 05:03:41;;;;;;;6.47;3.13;;;;;;;19.08;100.00;100998.41;5062483;28;20062;-85
2023/08/22 05:06:07;;;;;;;8.73;3.25;;;;;;;19.06;100.00;100988.75;5069525;28;20082;-82
2023/08/22 05:08:33;;;;;;;6.00;2.60;;;;;;;19.11;100.00;100995.16;5077783;28;20040;-84
2023/08/22 05:10:59;;;;;;;4.53;2.45;;;;;;;19.16;100.00;101007.34;5050970;28;20096;-84
2023/08/22 05:13:26;;;;;;;7.22;2.83;;;;;;;19.18;100.00;101013.44;5073595;28;20071;-85
2023/08/22 05:15:52;;;;;;;4.63;2.65;;;;;;;19.22;100.00;101011.78;5079613;28;20041;-84
2023/08/22 05:18:18;;;;;;;5.10;2.42;;;;;;;19.13;100.00;100994.03;5060419;28;20067;-85
2023/08/22 05:20:48;;;;;;;5.03;2.80;;;;;;;19.24;100.00;101002.16;5080331;28;20514;-84
2023/08/22 05:23:14;;;;;;;12.75;3.25;;;;;;;19.30;100.00;101016.81;5064070;28;20032;-83
2023/08/22 05:25:41;;;;;;;8.38;2.97;;;17.70;99.90;;;19.35;100.00;101024.31;5051942;28;20073;-83
2023/08/22 05:28:08;;;;;;;11.10;3.40;;;18.80;99.90;;;19.44;100.00;101042.06;5065504;28;20033;-84
2023/08/22 05:30:37;;;;;;;8.93;3.10;;;18.30;99.90;;;19.50;100.00;101049.34;5056938;28;20042;-83
2023/08/22 05:33:04;;;;;;;8.18;3.30;;;18.40;99.90;;;19.62;100.00;101060.16;5036739;28;20032;-81
2023/08/22 05:35:31;;;;;;;8.25;2.67;;;18.40;99.90;;;19.67;100.00;101059.38;5050843;28;20033;-81
2023/08/22 05:37:57;;;;;;;9.23;2.92;;;18.50;99.90;;;19.73;100.00;101074.88;5053856;28;20036;-82
2023/08/22 05:40:23;;;;;;;8.07;2.70;;;18.50;99.90;;;19.76;100.00;101073.53;5058946;28;20040;-87
2023/08/22 05:42:52;;;;;;;7.45;2.45;;;18.70;99.90;;;19.82;100.00;101075.22;5054651;28;20136;-85
2023/08/22 05:45:18;;;;;;;10.05;3.13;;;18.70;99.90;;;19.95;100.00;101077.53;5061004;28;20048;-82
2023/08/22 05:47:44;;;;;;;10.52;3.08;;;18.80;99.90;;;20.04;100.00;101075.09;5065641;28;20393;-83
2023/08/22 05:50:11;;;;;;;11.30;3.25;;;;;;;20.17;100.00;101087.63;5056684;28;20029;-83
2023/08/22 05:52:37;;;;;;;8.80;3.20;;;18.90;99.90;;;20.24;100.00;101090.97;5065853;28;20083;-83
2023/08/22 05:55:06;;;;;;;7.28;2.60;;;19.00;99.90;;;20.33;100.00;101093.19;5066562;28;20297;-83
2023/08/22 05:57:33;;;;;;;7.53;2.80;;;;;;;20.41;100.00;101107.34;5062625;28;20337;-82
2023/08/22 06:00:00;;;;;;;12.18;3.65;;;;;;;20.55;100.00;101109.59;5062121;28;20062;-83
2023/08/22 06:02:27;;;;;;;6.00;2.70;;;;;;;20.68;100.00;101106.31;5067234;28;20119;-83
2023/08/22 06:04:53;;;;;;;9.07;2.67;;;;;;;20.80;100.00;101114.41;5045837;28;20040;-82
2023/08/22 06:07:20;;;;;;;9.27;2.97;;;;;;;20.90;100.00;101108.03;5046987;28;20153;-80
2023/08/22 06:09:47;;;;;;;10.40;3.25;;;;;;;20.98;100.00;101107.50;5069141;28;20028;-80
2023/08/22 06:12:13;;;;;;;7.60;2.58;;;;;;;20.95;100.00;101101.66;5051373;28;20037;-81
2023/08/22 06:14:40;;;;;;;6.72;2.88;;;;;;;20.89;100.00;101091.66;5052811;28;20105;-80
2023/08/22 06:17:06;;;;;;;7.03;2.88;;;;;;;20.87;100.00;101088.34;5052186;28;20056;-81
2023/08/22 06:19:32;;;;;;;7.63;3.08;;;;;;;21.02;100.00;101088.38;5052038;28;20033;-83
2023/08/22 06:21:58;;;;;;;6.53;2.75;;;;;;;21.21;100.00;101093.34;5058942;28;20492;-84
2023/08/22 06:24:24;;;;;;;8.23;2.33;;;;;;;21.35;100.00;101119.41;5044165;28;20029;-85
2023/08/22 06:26:51;;;;;;;9.63;2.47;;;;;;;21.51;100.00;101116.66;5048074;28;20055;-85
2023/08/22 06:29:18;;;;;;;6.80;2.95;;;;;;;21.72;100.00;101111.06;5053046;28;20396;-86
2023/08/22 06:31:44;;;;;;;9.02;2.53;;;;;;;21.87;100.00;101113.81;5042230;28;20044;-81
2023/08/22 06:34:10;;;;;;;10.32;2.90;;;;;;;21.97;100.00;101116.56;5051619;28;20434;-82
2023/08/22 06:36:36;;;;;;;7.32;2.70;;;;;;;22.14;100.00;101115.38;5050802;28;20028;-81
2023/08/22 06:39:05;;;;;;;6.85;2.42;;;;;;;22.38;100.00;101120.28;5063116;28;20033;-80
2023/08/22 06:41:31;;;;;;;4.18;2.58;;;;;;;22.65;100.00;101121.84;5046264;28;20032;-81
2023/08/22 06:44:00;;;;;;;8.25;2.42;;;;;;;23.01;100.00;101124.38;5037684;28;20025;-79
2023/08/22 06:46:27;;;;;;;6.85;2.70;;;;;;;23.30;100.00;101123.59;5051887;28;20036;-79
2023/08/22 06:48:53;;;;;;;5.93;2.72;;;;;;;23.54;100.00;101120.91;5052325;28;20369;-79
2023/08/22 06:51:20;;;;;;;8.15;2.17;;;;;;;23.66;100.00;101134.44;5051110;28;20471;-79
2023/08/22 06:53:47;;;;;;;9.25;2.33;;;;;;;23.76;100.00;101132.66;5064506;28;20051;-80
2023/08/22 06:56:16;;;;;;;9.97;2.40;;;;;;;23.82;100.00;101132.31;5062615;28;20042;-82
2023/08/22 06:58:43;;;;;;;5.82;2.08;;;;;;;23.93;100.00;101141.38;5064818;28;20040;-81
2023/08/22 07:01:09;;;;;;;9.82;2.22;;;;;;;24.15;100.00;101140.06;5048536;28;20553;-82
2023/08/22 07:03:35;;;;;;;7.20;2.10;;;;;;;24.55;100.00;101140.63;5056305;28;20037;-80
2023/08/22 07:06:01;;;;;;;7.30;1.80;;;;;;;24.73;100.00;101146.53;5070164;28;20048;-82
2023/08/22 07:08:28;;;;;;;6.70;2.15;;;;;;;24.67;100.00;101151.34;5064877;28;20127;-82
2023/08/22 07:11:04;;;;;;;8.93;2.72;;;;;;;24.55;100.00;101149.00;5060797;28;20041;-83
2023/08/22 07:13:32;;;;;;;9.43;2.90;;;;;;;24.30;100.00;101152.97;5041658;28;20063;-85
2023/08/22 07:15:58;;;;;;;;;;;;;;;24.12;100.00;101152.63;5064125;28;20036;-85
2023/08/22 07:18:26;;;;;;;8.65;2.50;;;;;;;24.22;100.00;101151.66;5039223;28;19912;-86
2023/08/22 07:20:52;;;;;;;;;;;;;;;24.30;100.00;101157.69;5064742;28;20076;-86
2023/08/22 07:23:19;;;;;;;7.38;2.40;;;;;;;24.45;100.00;101154.72;5057460;28;19917;-86
2023/08/22 07:25:52;;;;;;;8.33;2.40;;;;;;;24.44;100.00;101150.28;5056240;28;20056;-85
2023/08/22 07:28:18;;;;;;;9.65;2.40;;;;;;;24.43;100.00;101157.00;5055582;28;20094;-83
2023/08/22 07:30:48;;;;;;;8.07;2.20;;;;;;;24.75;100.00;101155.47;5072362;28;20044;-84
2023/08/22 07:33:14;;;;;;;8.32;2.40;;;;;;;25.13;100.00;101152.63;5065518;28;20553;-83
2023/08/22 07:35:41;;;;;;;6.75;2.28;;;;;;;25.19;100.00;101150.59;5066006;28;20036;-85
2023/08/22 07:38:07;;;;;;;6.90;2.10;;;;;;;25.30;100.00;101153.22;5072289;28;20404;-84
2023/08/22 07:40:38;;;;;;;10.48;2.45;;;;;;;25.22;100.00;101146.38;5046933;28;20040;-88
2023/08/22 07:43:04;;;;;;;7.82;2.22;;;;;;;25.19;100.00;101144.19;5060400;28;20037;-84
2023/08/22 07:45:31;;;;;;;8.07;2.05;;;;;;;25.32;100.00;101139.78;5066640;28;20463;-85
2023/08/22 07:47:57;;;;;;;7.97;2.25;;;;;;;25.01;100.00;101143.91;5072817;28;20047;-85
2023/08/22 07:50:23;;;;;;;9.10;2.10;;;;;;;24.99;100.00;101144.22;5061571;28;20069;-82
2023/08/22 07:52:49;;;;;;;6.95;2.10;;;;;;;25.30;100.00;101142.03;5069579;28;20060;-83
2023/08/22 07:55:15;;;;;;;4.97;1.90;;;;;;;25.49;100.00;101147.63;5074093;28;20042;-83
2023/08/22 07:57:41;;;;;;;6.20;1.73;;;;;;;25.66;100.00;101142.28;5075295;28;20155;-86
2023/08/22 08:00:11;;;;;;;6.03;1.92;;;;;;;25.52;100.00;101152.59;5067259;28;20033;-84
2023/08/22 08:02:40;;;;;;;6.47;2.05;;;;;;;25.69;100.00;101140.84;5067736;28;20109;-87
2023/08/22 08:05:07;;;;;;;6.40;1.97;;;;;;;25.84;100.00;101140.53;5074759;28;20025;-85
2023/08/22 08:07:34;;;;;;;7.05;1.90;;;;;;;25.96;100.00;101142.81;5058765;28;20098;-86
2023/08/22 08:10:00;;;;;;;7.03;1.92;;;;;;;26.01;100.00;101150.28;5057320;28;20040;-85
2023/08/22 08:12:26;;;;;;;4.03;1.77;;;;;;;25.85;100.00;101144.16;5068796;28;20036;-86
2023/08/22 08:14:53;;;;;;;7.45;1.92;;;;;;;26.22;100.00;101147.13;5070967;28;20080;-84
2023/08/22 08:17:19;;;;;;;9.68;2.10;;;;;;;26.09;100.00;101143.16;5071605;28;20112;-86
2023/08/22 08:19:46;;;;;;;6.53;2.30;;;;;;;25.65;100.00;101140.63;5079395;28;20211;-84
2023/08/22 08:22:12;;;;;;;5.13;2.05;;;;;;;25.20;100.00;101137.50;5069615;28;20041;-83
2023/08/22 08:24:38;;;;;;;4.72;1.88;;;;;;;25.19;100.00;101136.66;5052422;28;20036;-84
2023/08/22 08:27:05;;;;;;;7.85;2.10;;;;;;;25.59;100.00;101133.47;5061656;28;20037;-85
2023/08/22 08:29:32;;;;;;;4.17;2.00;;;;;;;26.09;100.00;101132.78;5076796;28;20033;-85
2023/08/22 08:31:58;;;;;;;7.35;2.25;;;;;;;26.43;100.00;101125.13;5048972;28;20085;-84
2023/08/22 08:34:25;;;;;;;7.10;2.05;;;;;;;26.75;100.00;101142.88;5062444;28;20116;-86
2023/08/22 08:36:52;;;;;;;9.43;2.30;;;;;;;26.91;100.00;101142.53;5066912;28;20119;-85
2023/08/22 08:39:18;;;;;;;6.55;1.90;;;;;;;26.35;99.44;101145.44;5069583;28;20033;-87
2023/08/22 08:42:15;;;;;;;5.28;2.10;;;;;;;27.30;95.42;101143.81;5065648;28;20043;-86
2023/08/22 08:44:42;;;;;;;5.95;1.92;;;;;;;27.52;92.67;101153.38;5065432;28;20040;-84
2023/08/22 08:47:09;;;;;;;9.23;2.25;;;;;;;27.48;93.09;101155.13;5072112;28;20135;-86
2023/08/22 08:49:36;;;;;;;;;;;;;;;26.77;94.11;101162.16;5045729;28;20085;-85
2023/08/22 08:52:04;;;;;;;6.63;1.92;;;;;;;27.24;91.76;101159.09;5058065;28;19923;-85
2023/08/22 08:54:31;;;;;;;8.80;2.10;;;;;;;27.64;88.73;101155.59;5064268;28;20052;-83
2023/08/22 08:56:57;;;;;;;6.60;2.13;;;;;;;27.40;97.29;101154.78;5077930;28;20063;-85
2023/08/22 08:59:24;;;;;;;7.03;2.03;;;;;;;28.12;87.45;101149.22;5084983;28;20091;-85
2023/08/22 09:01:51;;;;;;;6.55;2.30;;;;;;;27.53;89.85;101155.88;5078264;28;20044;-87
2023/08/22 09:04:18;;;;;;;6.30;2.50;;;;;;;26.81;96.52;101157.56;5063317;28;20032;-86
2023/08/22 09:06:46;;;;;;;7.30;2.17;;;;;;;26.66;97.87;101156.78;5063878;28;20040;-87
2023/08/22 09:09:13;;;;;;;8.07;2.03;;;;;;;26.85;85.20;101158.63;5073386;28;20105;-86
2023/08/22 09:11:49;;;;;;;5.40;2.20;;;;;;;26.17;86.86;101167.59;5048894;28;20048;-86
2023/08/22 09:14:21;;;;;;;6.05;1.98;;;;;;;26.38;90.06;101167.19;5063315;28;20052;-83
2023/08/22 09:16:49;;;;;;;7.40;1.95;;;;;;;26.35;89.74;101154.66;5045077;28;20032;-83
2023/08/22 09:19:15;;;;;;;7.10;1.83;;;;;;;26.42;89.87;101155.06;5067090;28;20028;-85
2023/08/22 09:21:57;;;;;;;7.07;1.98;;;;;;;26.54;91.31;101164.88;5057650;28;20507;-86
2023/08/22 09:24:24;;;;;;;10.52;2.08;;;;;;;26.29;88.43;101153.09;5056180;28;20033;-84
2023/08/22 09:26:51;;;;;;;5.93;2.10;;;;;;;26.85;88.51;101159.47;5063942;28;20551;-86
2023/08/22 09:29:28;;;;;;;10.43;2.20;;;;;;;27.22;86.69;101159.44;5068116;28;20024;-87
2023/08/22 09:32:12;;;;;;;5.38;1.60;;;;;;;27.68;85.74;101160.22;5071677;28;20045;-87
2023/08/22 09:34:51;;;;;;;6.80;1.98;;;;;;;27.31;83.04;101156.66;5070339;28;20014;-87
2023/08/22 09:37:33;;;;;;;6.22;2.03;;;;;;;26.91;83.00;101154.56;5072758;28;20068;-86
2023/08/22 09:40:00;;;;;;;10.25;2.25;;;;;;;27.09;80.24;101163.94;5076509;28;20037;-88
2023/08/22 09:42:31;;;;;;;8.07;2.40;;;;;;;27.38;76.00;101151.47;5061060;28;20106;-88
2023/08/22 09:44:58;;;;;;;5.90;1.80;;;;;;;26.45;83.97;101164.78;5088784;28;20017;-87
2023/08/22 09:47:29;;;;;;;6.03;2.13;;;;;;;26.75;85.63;101159.66;5088814;28;20043;-85
2023/08/22 09:49:58;;;;;;;6.07;2.00;;;;;;;26.83;86.39;101161.72;5070538;28;20122;-87
2023/08/22 09:52:25;;;;;;;5.22;1.90;;;;;;;27.44;82.78;101163.34;5043062;28;20393;-88
2023/08/22 09:54:53;;;;;;;8.20;1.90;;;;;;;26.88;83.73;101166.38;5063702;28;20067;-87
2023/08/22 09:57:19;;;;;;;8.27;2.10;;;;;;;26.75;85.05;101164.44;5058162;28;20036;-86
2023/08/22 09:59:49;;;;;;;7.23;2.20;;;;;;;26.60;86.34;101171.19;5042661;28;20067;-88
2023/08/22 10:02:17;;;;;;;4.50;1.90;;;;;;;26.84;85.45;101166.22;5059350;28;20037;-86
2023/08/22 10:04:46;;;;;;;6.13;2.00;;;;;;;27.41;81.69;101170.44;5064739;28;20060;-89
2023/08/22 10:07:12;;;;;;;6.72;1.98;;;;;;;27.25;83.18;101160.75;5065887;28;20108;-88
2023/08/22 10:09:39;;;;;;;7.15;2.05;;;;;;;26.76;85.03;101178.09;5054700;28;20036;-90
2023/08/22 10:12:11;;;;;;;6.32;2.30;;;;;;;27.14;82.89;101171.38;5061756;28;20417;-88
2023/08/22 10:14:56;;;;;;;7.97;2.28;;;;;;;26.65;82.46;101171.09;5048691;28;20137;-85
2023/08/22 10:17:26;;;;;;;7.90;2.30;;;;;;;26.48;84.82;101164.16;5061672;28;20045;-88
2023/08/22 10:19:59;;;;;;;5.35;2.22;;;;;;;27.47;80.51;101162.72;5045064;28;20048;-88
2023/08/22 10:22:32;;;;;;;7.07;2.30;;;;;;;27.46;77.25;101172.28;5067518;28;20072;-87
2023/08/22 10:25:06;;;;;;;8.02;2.40;;;;;;;27.93;74.50;101171.06;5060942;28;20025;-89
2023/08/22 10:27:35;;;;;;;6.22;2.03;;;;;;;27.83;73.99;101166.56;5064417;28;20115;-88
2023/08/22 10:30:13;;;;;;;6.80;2.28;;;;;;;27.19;76.37;101176.88;5058674;28;20492;-79
2023/08/22 10:32:40;;;;;;;5.75;2.17;;;;;;;27.92;74.21;101172.22;5063373;28;20032;-82
2023/08/22 10:35:18;;;;;;;8.32;2.45;;;;;;;28.00;70.97;101172.25;5067413;28;20055;-82
2023/08/22 10:37:47;;;;;;;7.50;2.25;;;;;;;27.42;70.68;101176.84;5065501;28;20029;-82
2023/08/22 10:40:51;;;;;;;5.57;2.33;;;;;;;26.81;78.84;101161.22;5068197;28;20196;-85
2023/08/22 10:43:17;;;;;;;9.90;2.35;;;;;;;27.24;75.83;101159.94;5059075;28;20079;-83
2023/08/22 10:45:49;;;;;;;9.52;2.47;;;;;;;26.61;80.36;101170.06;5067485;28;20128;-82
2023/08/22 10:48:17;;;;;;;5.65;2.15;;;;;;;27.36;78.37;101170.56;5049597;28;20037;-81
2023/08/22 10:50:48;;;;;;;10.00;2.28;;;;;;;28.88;62.61;101165.25;5067355;28;20044;-84
2023/08/22 10:53:26;;;;;;;5.97;1.98;;;;;;;31.49;52.64;101178.78;5067326;28;20445;-82
2023/08/22 10:55:53;;;;;;;;;;;;;;;31.39;46.76;101165.94;5060982;28;20087;-81
2023/08/22 10:58:36;;;;;;;6.03;1.90;;;;;;;29.63;48.12;101172.63;5030531;28;19913;-86
2023/08/22 11:01:14;;;;;;;4.90;1.55;;;;;;;29.43;49.12;101173.00;5049033;28;20428;-81
2023/08/22 11:03:42;;;;;;;5.50;1.60;;;;;;;28.99;50.69;101167.38;5068444;28;20024;-82
2023/08/22 11:06:11;;;;;;;;;;;;;;;29.56;46.33;101159.91;5066868;28;20041;-86
2023/08/22 11:08:38;;;;;;;5.25;1.63;;;;;;;29.05;50.56;101168.06;5064548;28;19916;-80
2023/08/22 11:11:05;;;;;;;7.03;1.90;;;;;;;28.71;51.67;101164.88;5060574;28;20541;-82
2023/08/22 11:13:38;;;;;;;5.38;1.63;;;;;;;28.24;55.38;101164.59;5058110;28;20531;-80
2023/08/22 11:16:13;;;;;;;5.38;1.67;;;;;;;27.91;55.49;101156.53;5037499;28;20090;-83
2023/08/22 11:18:40;;;;;;;7.63;1.90;;;;;;;27.51;55.97;101157.31;5058087;28;20361;-85
2023/08/22 11:21:07;;;;;;;5.25;1.92;;;;;;;28.44;56.39;101157.59;5059204;28;20028;-80